FLI201 LEAL-EKVG
Flight info
| Callsign | FLI201 |
|---|---|
| Flight time | N/A |
| Altitude | 34000 |
| Route | VLC DCT GIROM/N0444F360 DCT AGN DCT SECHE DCT UVELI DCT CNA DCT TUPAR UY120 AKIKI UN867 VASUX DCT TNT UN57 POL UN601 TLA DCT NALAN DCT ROBUR |
| Aircraft | A320/M-SDE3FGHIRWY/LB1 |
Departure
| Time | N/A |
|---|---|
| Airport | Alicante-Elche Miguel Hernández Airport (LEAL) |
Arrival
| Time | 2026-05-07 18:06 |
|---|---|
| Airport | Vágar Airport (EKVG) |
| Time | Latitude | Longitude | Altitude | Speed | Heading |
|---|---|---|---|---|---|
| 2026-05-07 16:55 | 56.06538 | -3.58877 | 34016 ft | 438 kts | 346° |
| 2026-05-07 16:56 | 56.09505 | -3.60141 | 34020 ft | 438 kts | 346° |
| 2026-05-07 16:56 | 56.18357 | -3.63893 | 34015 ft | 438 kts | 346° |
| 2026-05-07 16:57 | 56.24279 | -3.66414 | 34004 ft | 438 kts | 346° |
| 2026-05-07 16:57 | 56.30209 | -3.68943 | 33999 ft | 438 kts | 346° |
| 2026-05-07 16:58 | 56.36139 | -3.71488 | 34003 ft | 438 kts | 346° |
| 2026-05-07 16:58 | 56.42057 | -3.74046 | 34004 ft | 438 kts | 346° |
| 2026-05-07 16:59 | 56.47985 | -3.76624 | 34000 ft | 438 kts | 346° |
| 2026-05-07 16:59 | 56.53915 | -3.79194 | 33998 ft | 438 kts | 346° |
| 2026-05-07 17:00 | 56.59852 | -3.81760 | 33996 ft | 439 kts | 346° |
| 2026-05-07 17:00 | 56.65785 | -3.84340 | 34000 ft | 438 kts | 346° |
| 2026-05-07 17:01 | 56.71717 | -3.86942 | 33995 ft | 438 kts | 346° |
| 2026-05-07 17:01 | 56.77649 | -3.89553 | 34001 ft | 438 kts | 346° |
| 2026-05-07 17:02 | 56.83587 | -3.92157 | 33997 ft | 438 kts | 346° |
| 2026-05-07 17:02 | 56.89521 | -3.94757 | 33993 ft | 439 kts | 346° |
| 2026-05-07 17:03 | 56.95463 | -3.97397 | 33990 ft | 439 kts | 346° |
| 2026-05-07 17:03 | 57.01405 | -4.00058 | 33993 ft | 440 kts | 346° |
| 2026-05-07 17:04 | 57.07351 | -4.02716 | 34001 ft | 440 kts | 346° |
| 2026-05-07 17:04 | 57.13291 | -4.05373 | 34005 ft | 439 kts | 346° |
| 2026-05-07 17:05 | 57.19233 | -4.08036 | 33998 ft | 439 kts | 346° |
| 2026-05-07 17:05 | 57.25174 | -4.10709 | 33995 ft | 440 kts | 346° |
| 2026-05-07 17:06 | 57.31116 | -4.13393 | 33996 ft | 439 kts | 346° |
| 2026-05-07 17:06 | 57.37054 | -4.16092 | 34002 ft | 439 kts | 345° |
| 2026-05-07 17:07 | 57.42987 | -4.18791 | 34009 ft | 439 kts | 345° |
| 2026-05-07 17:07 | 57.48916 | -4.21506 | 34012 ft | 438 kts | 345° |
| 2026-05-07 17:08 | 57.54838 | -4.24221 | 34019 ft | 438 kts | 345° |
| 2026-05-07 17:08 | 57.60747 | -4.26931 | 34010 ft | 437 kts | 345° |
| 2026-05-07 17:09 | 57.66655 | -4.29635 | 34014 ft | 437 kts | 345° |
| 2026-05-07 17:09 | 57.72565 | -4.32362 | 34012 ft | 437 kts | 345° |
| 2026-05-07 17:10 | 57.78469 | -4.35111 | 34003 ft | 437 kts | 345° |
| 2026-05-07 17:10 | 57.84378 | -4.37873 | 33997 ft | 438 kts | 345° |
| 2026-05-07 17:11 | 57.90291 | -4.40637 | 34006 ft | 438 kts | 345° |
| 2026-05-07 17:11 | 57.96167 | -4.43380 | 34012 ft | 437 kts | 345° |
| 2026-05-07 17:12 | 58.02072 | -4.46156 | 34010 ft | 437 kts | 345° |
| 2026-05-07 17:12 | 58.07974 | -4.48944 | 34009 ft | 437 kts | 345° |
| 2026-05-07 17:13 | 58.13883 | -4.51749 | 34009 ft | 437 kts | 345° |
| 2026-05-07 17:13 | 58.19787 | -4.54556 | 34008 ft | 437 kts | 345° |
| 2026-05-07 17:14 | 58.25694 | -4.57369 | 34002 ft | 438 kts | 345° |
| 2026-05-07 17:14 | 58.31607 | -4.60202 | 34004 ft | 438 kts | 345° |
| 2026-05-07 17:15 | 58.37514 | -4.63046 | 34007 ft | 438 kts | 345° |
| 2026-05-07 17:15 | 58.43417 | -4.65898 | 34013 ft | 437 kts | 345° |
| 2026-05-07 17:16 | 58.49319 | -4.68745 | 34015 ft | 437 kts | 345° |
| 2026-05-07 17:16 | 58.55215 | -4.71593 | 34014 ft | 437 kts | 345° |
| 2026-05-07 17:17 | 58.61110 | -4.74467 | 34008 ft | 437 kts | 345° |
| 2026-05-07 17:17 | 58.66998 | -4.77349 | 34017 ft | 437 kts | 345° |
| 2026-05-07 17:18 | 58.72882 | -4.80241 | 34017 ft | 436 kts | 345° |
| 2026-05-07 17:18 | 58.78770 | -4.83150 | 34015 ft | 436 kts | 345° |
| 2026-05-07 17:19 | 58.84656 | -4.86051 | 34013 ft | 436 kts | 345° |
| 2026-05-07 17:19 | 58.90540 | -4.88959 | 34016 ft | 436 kts | 345° |
| 2026-05-07 17:20 | 58.96382 | -4.91862 | 34009 ft | 436 kts | 345° |
| 2026-05-07 17:20 | 59.02261 | -4.94788 | 34009 ft | 436 kts | 345° |
| 2026-05-07 17:21 | 59.07186 | -4.97248 | 34013 ft | 436 kts | 345° |
| 2026-05-07 17:21 | 59.13061 | -5.00204 | 34015 ft | 436 kts | 345° |
| 2026-05-07 17:22 | 59.18935 | -5.03174 | 34014 ft | 436 kts | 345° |
| 2026-05-07 17:22 | 59.24807 | -5.06160 | 34009 ft | 436 kts | 345° |
| 2026-05-07 17:23 | 59.30682 | -5.09138 | 34013 ft | 436 kts | 345° |
| 2026-05-07 17:23 | 59.36557 | -5.12117 | 34013 ft | 436 kts | 345° |
| 2026-05-07 17:24 | 59.42430 | -5.15134 | 34012 ft | 436 kts | 345° |
| 2026-05-07 17:24 | 59.48297 | -5.18160 | 34011 ft | 436 kts | 345° |
| 2026-05-07 17:25 | 59.54153 | -5.21177 | 34011 ft | 436 kts | 345° |
| 2026-05-07 17:25 | 59.60032 | -5.24199 | 34010 ft | 436 kts | 345° |
| 2026-05-07 17:26 | 59.65902 | -5.27229 | 34007 ft | 436 kts | 345° |
| 2026-05-07 17:26 | 59.71761 | -5.30293 | 34007 ft | 436 kts | 344° |
| 2026-05-07 17:27 | 59.77622 | -5.33376 | 34009 ft | 436 kts | 345° |
| 2026-05-07 17:27 | 59.83483 | -5.36436 | 34009 ft | 436 kts | 345° |
| 2026-05-07 17:28 | 59.89342 | -5.39523 | 34008 ft | 435 kts | 344° |
| 2026-05-07 17:28 | 59.95198 | -5.42626 | 34008 ft | 435 kts | 344° |
| 2026-05-07 17:29 | 60.01011 | -5.45699 | 34004 ft | 435 kts | 344° |
| 2026-05-07 17:29 | 60.06868 | -5.48819 | 34007 ft | 435 kts | 344° |
| 2026-05-07 17:30 | 60.12723 | -5.51930 | 34006 ft | 435 kts | 344° |
| 2026-05-07 17:30 | 60.18574 | -5.55067 | 33998 ft | 435 kts | 344° |
| 2026-05-07 17:31 | 60.21497 | -5.56645 | 33752 ft | 434 kts | 344° |
| 2026-05-07 17:31 | 60.24399 | -5.58214 | 33502 ft | 431 kts | 344° |
| 2026-05-07 17:31 | 60.27296 | -5.59776 | 33250 ft | 430 kts | 344° |
| 2026-05-07 17:31 | 60.30177 | -5.61326 | 33002 ft | 428 kts | 344° |
| 2026-05-07 17:32 | 60.33050 | -5.62868 | 32751 ft | 426 kts | 344° |
| 2026-05-07 17:32 | 60.35910 | -5.64414 | 32500 ft | 424 kts | 344° |
| 2026-05-07 17:32 | 60.38758 | -5.65962 | 32250 ft | 423 kts | 344° |
| 2026-05-07 17:32 | 60.41591 | -5.67510 | 31999 ft | 421 kts | 344° |
| 2026-05-07 17:33 | 60.44410 | -5.69056 | 31749 ft | 419 kts | 344° |
| 2026-05-07 17:33 | 60.47218 | -5.70599 | 31499 ft | 417 kts | 344° |
| 2026-05-07 17:33 | 60.50016 | -5.72132 | 31249 ft | 416 kts | 344° |
| 2026-05-07 17:33 | 60.52803 | -5.73663 | 30996 ft | 414 kts | 344° |
| 2026-05-07 17:34 | 60.55578 | -5.75193 | 30748 ft | 412 kts | 344° |
| 2026-05-07 17:34 | 60.58328 | -5.76707 | 30500 ft | 411 kts | 344° |
| 2026-05-07 17:34 | 60.61089 | -5.78228 | 30249 ft | 409 kts | 344° |
| 2026-05-07 17:34 | 60.63833 | -5.79744 | 29998 ft | 407 kts | 344° |
| 2026-05-07 17:35 | 60.66563 | -5.81257 | 29747 ft | 406 kts | 344° |
| 2026-05-07 17:35 | 60.69283 | -5.82768 | 29499 ft | 404 kts | 344° |
| 2026-05-07 17:35 | 60.71991 | -5.84273 | 29247 ft | 403 kts | 344° |
| 2026-05-07 17:35 | 60.74692 | -5.85776 | 28996 ft | 401 kts | 344° |
| 2026-05-07 17:36 | 60.77376 | -5.87267 | 28746 ft | 399 kts | 344° |
| 2026-05-07 17:36 | 60.80054 | -5.88760 | 28490 ft | 398 kts | 344° |
| 2026-05-07 17:36 | 60.82718 | -5.90250 | 28245 ft | 396 kts | 344° |
| 2026-05-07 17:36 | 60.85372 | -5.91733 | 27995 ft | 395 kts | 344° |
| 2026-05-07 17:37 | 60.88016 | -5.93214 | 27745 ft | 393 kts | 344° |
| 2026-05-07 17:37 | 60.90647 | -5.94695 | 27495 ft | 391 kts | 344° |
| 2026-05-07 17:37 | 60.93269 | -5.96174 | 27248 ft | 390 kts | 344° |
| 2026-05-07 17:37 | 60.95886 | -5.97650 | 26994 ft | 388 kts | 344° |
| 2026-05-07 17:38 | 60.98486 | -5.99118 | 26740 ft | 387 kts | 344° |
| 2026-05-07 17:38 | 61.01074 | -6.00598 | 26493 ft | 385 kts | 343° |
| 2026-05-07 17:38 | 61.03637 | -6.02157 | 26243 ft | 383 kts | 342° |
| 2026-05-07 17:38 | 61.06182 | -6.03776 | 25993 ft | 382 kts | 342° |
| 2026-05-07 17:39 | 61.08712 | -6.05420 | 25742 ft | 380 kts | 342° |
| 2026-05-07 17:39 | 61.11230 | -6.07062 | 25492 ft | 379 kts | 342° |
| 2026-05-07 17:39 | 61.13742 | -6.08694 | 25239 ft | 377 kts | 342° |
| 2026-05-07 17:39 | 61.16244 | -6.10311 | 24984 ft | 376 kts | 342° |
| 2026-05-07 17:40 | 61.18741 | -6.11912 | 24741 ft | 375 kts | 342° |
| 2026-05-07 17:40 | 61.21224 | -6.13491 | 24495 ft | 373 kts | 342° |
| 2026-05-07 17:40 | 61.23704 | -6.15066 | 24240 ft | 372 kts | 342° |
| 2026-05-07 17:40 | 61.26170 | -6.16638 | 23990 ft | 370 kts | 342° |
| 2026-05-07 17:41 | 61.28625 | -6.18215 | 23740 ft | 369 kts | 342° |
| 2026-05-07 17:41 | 61.31068 | -6.19791 | 23491 ft | 367 kts | 342° |
| 2026-05-07 17:41 | 61.33500 | -6.21366 | 23236 ft | 366 kts | 342° |
| 2026-05-07 17:41 | 61.35930 | -6.22934 | 22989 ft | 364 kts | 342° |
| 2026-05-07 17:42 | 61.38345 | -6.24489 | 22733 ft | 362 kts | 342° |
| 2026-05-07 17:42 | 61.40735 | -6.26038 | 22338 ft | 358 kts | 342° |
| 2026-05-07 17:42 | 61.43105 | -6.27584 | 21882 ft | 356 kts | 342° |
| 2026-05-07 17:42 | 61.45435 | -6.29102 | 21426 ft | 355 kts | 342° |
| 2026-05-07 17:43 | 61.47787 | -6.30637 | 20982 ft | 353 kts | 342° |
| 2026-05-07 17:43 | 61.50129 | -6.32166 | 20537 ft | 352 kts | 342° |
| 2026-05-07 17:43 | 61.52460 | -6.33688 | 20087 ft | 350 kts | 342° |
| 2026-05-07 17:43 | 61.54779 | -6.35199 | 19645 ft | 349 kts | 342° |
| 2026-05-07 17:44 | 61.57097 | -6.36715 | 19208 ft | 347 kts | 342° |
| 2026-05-07 17:44 | 61.59398 | -6.38228 | 18771 ft | 346 kts | 342° |
| 2026-05-07 17:44 | 61.61687 | -6.39740 | 18337 ft | 344 kts | 342° |
| 2026-05-07 17:44 | 61.63966 | -6.41242 | 17907 ft | 341 kts | 342° |
| 2026-05-07 17:45 | 61.66207 | -6.42721 | 17491 ft | 336 kts | 342° |
| 2026-05-07 17:45 | 61.68433 | -6.44189 | 17074 ft | 335 kts | 342° |
| 2026-05-07 17:45 | 61.70654 | -6.45657 | 16661 ft | 334 kts | 342° |
| 2026-05-07 17:45 | 61.72868 | -6.47127 | 16251 ft | 333 kts | 341° |
| 2026-05-07 17:46 | 61.75068 | -6.48589 | 15844 ft | 331 kts | 341° |
| 2026-05-07 17:46 | 61.77262 | -6.50045 | 15438 ft | 330 kts | 342° |
| 2026-05-07 17:46 | 61.79451 | -6.51499 | 15031 ft | 329 kts | 341° |
| 2026-05-07 17:46 | 61.81638 | -6.52955 | 14582 ft | 329 kts | 341° |
| 2026-05-07 17:47 | 61.83786 | -6.54390 | 14454 ft | 318 kts | 341° |
| 2026-05-07 17:47 | 61.85838 | -6.55759 | 14311 ft | 299 kts | 341° |
| 2026-05-07 17:47 | 61.87787 | -6.57067 | 14016 ft | 293 kts | 341° |
| 2026-05-07 17:47 | 61.89670 | -6.58673 | 13711 ft | 290 kts | 326° |
| 2026-05-07 17:48 | 61.91103 | -6.61689 | 13201 ft | 298 kts | 299° |
| 2026-05-07 17:48 | 61.91811 | -6.65865 | 13225 ft | 306 kts | 277° |
| 2026-05-07 17:48 | 61.91740 | -6.70368 | 13238 ft | 309 kts | 256° |
| 2026-05-07 17:48 | 61.90877 | -6.74530 | 13241 ft | 310 kts | 234° |
| 2026-05-07 17:49 | 61.89326 | -6.77679 | 13240 ft | 312 kts | 212° |
| 2026-05-07 17:49 | 61.87313 | -6.79343 | 13243 ft | 313 kts | 189° |
| 2026-05-07 17:49 | 61.85138 | -6.79230 | 13239 ft | 313 kts | 167° |
| 2026-05-07 17:49 | 61.83196 | -6.77416 | 13239 ft | 300 kts | 144° |
| 2026-05-07 17:50 | 61.81774 | -6.74363 | 13237 ft | 288 kts | 123° |
| 2026-05-07 17:50 | 61.80814 | -6.70664 | 13241 ft | 286 kts | 118° |
| 2026-05-07 17:50 | 61.79859 | -6.66980 | 13239 ft | 285 kts | 120° |
| 2026-05-07 17:50 | 61.78882 | -6.63333 | 13239 ft | 285 kts | 120° |
| 2026-05-07 17:51 | 61.77901 | -6.59702 | 13245 ft | 284 kts | 120° |
| 2026-05-07 17:51 | 61.76921 | -6.56073 | 13240 ft | 284 kts | 120° |
| 2026-05-07 17:51 | 61.75969 | -6.52488 | 13242 ft | 284 kts | 116° |
| 2026-05-07 17:51 | 61.75421 | -6.48447 | 13240 ft | 284 kts | 93° |
| 2026-05-07 17:52 | 61.75663 | -6.44330 | 13247 ft | 284 kts | 69° |
| 2026-05-07 17:52 | 61.76646 | -6.40761 | 13242 ft | 283 kts | 46° |
| 2026-05-07 17:52 | 61.78202 | -6.38286 | 13240 ft | 281 kts | 23° |
| 2026-05-07 17:52 | 61.80078 | -6.37264 | 13239 ft | 279 kts | 0° |
| 2026-05-07 17:53 | 61.81983 | -6.37843 | 13241 ft | 277 kts | 338° |
| 2026-05-07 17:53 | 61.83605 | -6.39873 | 13234 ft | 276 kts | 316° |
| 2026-05-07 17:53 | 61.84758 | -6.43077 | 13233 ft | 275 kts | 299° |
| 2026-05-07 17:53 | 61.85701 | -6.46588 | 13230 ft | 275 kts | 298° |
| 2026-05-07 17:54 | 61.86645 | -6.50144 | 13026 ft | 276 kts | 298° |
| 2026-05-07 17:54 | 61.87581 | -6.53668 | 12785 ft | 274 kts | 298° |
| 2026-05-07 17:54 | 61.88493 | -6.57210 | 12543 ft | 272 kts | 294° |
| 2026-05-07 17:54 | 61.89149 | -6.60971 | 12286 ft | 271 kts | 287° |
| 2026-05-07 17:55 | 61.89728 | -6.64770 | 12035 ft | 270 kts | 288° |
| 2026-05-07 17:55 | 61.90310 | -6.68552 | 11790 ft | 269 kts | 288° |
| 2026-05-07 17:55 | 61.90893 | -6.72321 | 11534 ft | 268 kts | 288° |
| 2026-05-07 17:55 | 61.91471 | -6.76071 | 11284 ft | 267 kts | 288° |
| 2026-05-07 17:56 | 61.92046 | -6.79811 | 11033 ft | 266 kts | 288° |
| 2026-05-07 17:56 | 61.92617 | -6.83543 | 10782 ft | 265 kts | 288° |
| 2026-05-07 17:56 | 61.93184 | -6.87252 | 10532 ft | 264 kts | 288° |
| 2026-05-07 17:56 | 61.93751 | -6.90953 | 10305 ft | 262 kts | 288° |
| 2026-05-07 17:57 | 61.94317 | -6.94640 | 10114 ft | 265 kts | 288° |
| 2026-05-07 17:57 | 61.94696 | -6.97123 | 9764 ft | 267 kts | 287° |
| 2026-05-07 17:57 | 61.95436 | -7.01993 | 9338 ft | 250 kts | 287° |
| 2026-05-07 17:57 | 61.95965 | -7.05497 | 8898 ft | 248 kts | 287° |
| 2026-05-07 17:58 | 61.96489 | -7.08975 | 8522 ft | 247 kts | 287° |
| 2026-05-07 17:58 | 61.97012 | -7.12459 | 8160 ft | 247 kts | 287° |
| 2026-05-07 17:58 | 61.97530 | -7.15936 | 7806 ft | 247 kts | 287° |
| 2026-05-07 17:58 | 61.98044 | -7.19397 | 7566 ft | 239 kts | 287° |
| 2026-05-07 17:59 | 61.98532 | -7.22686 | 7261 ft | 230 kts | 287° |
| 2026-05-07 17:59 | 61.99009 | -7.25894 | 6899 ft | 223 kts | 287° |
| 2026-05-07 17:59 | 61.99474 | -7.29018 | 6594 ft | 223 kts | 287° |
| 2026-05-07 17:59 | 61.99951 | -7.32223 | 6100 ft | 230 kts | 287° |
| 2026-05-07 18:00 | 62.00438 | -7.35497 | 5727 ft | 232 kts | 287° |
| 2026-05-07 18:00 | 62.00911 | -7.38675 | 5612 ft | 218 kts | 287° |
| 2026-05-07 18:00 | 62.01364 | -7.41723 | 5546 ft | 214 kts | 287° |
| 2026-05-07 18:00 | 62.01809 | -7.44728 | 5453 ft | 210 kts | 287° |
| 2026-05-07 18:01 | 62.02248 | -7.47622 | 5372 ft | 204 kts | 290° |
| 2026-05-07 18:01 | 62.02901 | -7.50271 | 5079 ft | 203 kts | 303° |
| 2026-05-07 18:01 | 62.03824 | -7.52566 | 4634 ft | 202 kts | 316° |
| 2026-05-07 18:01 | 62.04904 | -7.54324 | 4403 ft | 192 kts | 327° |
| 2026-05-07 18:02 | 62.07369 | -7.56131 | 3871 ft | 192 kts | 2° |
| 2026-05-07 18:02 | 62.08643 | -7.55427 | 3658 ft | 193 kts | 25° |
| 2026-05-07 18:02 | 62.09685 | -7.53700 | 3364 ft | 187 kts | 50° |
| 2026-05-07 18:03 | 62.10299 | -7.51377 | 3066 ft | 176 kts | 72° |
| 2026-05-07 18:03 | 62.10466 | -7.48873 | 2800 ft | 167 kts | 93° |
| 2026-05-07 18:03 | 62.10249 | -7.46491 | 2500 ft | 161 kts | 112° |
| 2026-05-07 18:03 | 62.09823 | -7.44308 | 2200 ft | 157 kts | 114° |
| 2026-05-07 18:04 | 62.09397 | -7.42196 | 1937 ft | 153 kts | 114° |
| 2026-05-07 18:04 | 62.08980 | -7.40129 | 1712 ft | 151 kts | 114° |
| 2026-05-07 18:04 | 62.08570 | -7.38062 | 1405 ft | 152 kts | 114° |
| 2026-05-07 18:04 | 62.08156 | -7.35993 | 1069 ft | 151 kts | 113° |
| 2026-05-07 18:05 | 62.07806 | -7.33907 | 813 ft | 147 kts | 110° |
| 2026-05-07 18:05 | 62.07555 | -7.32559 | 674 ft | 147 kts | 113° |
| 2026-05-07 18:05 | 62.07085 | -7.30632 | 433 ft | 146 kts | 120° |
| 2026-05-07 18:05 | 62.06466 | -7.28149 | 292 ft | 123 kts | 119° |
| 2026-05-07 18:06 | 62.06291 | -7.27458 | 291 ft | 61 kts | 117° |
| 2026-05-07 18:06 | 62.06206 | -7.27107 | 280 ft | 32 kts | 117° |
| 2026-05-07 18:06 | 62.06129 | -7.26811 | 271 ft | 23 kts | 120° |
| 2026-05-07 18:06 | 62.06044 | -7.26464 | 259 ft | 30 kts | 117° |
| 2026-05-07 18:07 | 62.05969 | -7.26161 | 246 ft | 15 kts | 116° |
| 2026-05-07 18:07 | 62.05933 | -7.26023 | 246 ft | 6 kts | 220° |
| 2026-05-07 18:07 | 62.05962 | -7.26138 | 245 ft | 14 kts | 303° |
| 2026-05-07 18:07 | 62.06024 | -7.26374 | 254 ft | 22 kts | 296° |
| 2026-05-07 18:08 | 62.06103 | -7.26686 | 267 ft | 25 kts | 298° |
| 2026-05-07 18:08 | 62.06177 | -7.26993 | 274 ft | 23 kts | 297° |
| 2026-05-07 18:08 | 62.06255 | -7.27305 | 287 ft | 27 kts | 300° |
| 2026-05-07 18:08 | 62.06352 | -7.27684 | 297 ft | 32 kts | 298° |
| 2026-05-07 18:09 | 62.06460 | -7.28113 | 294 ft | 26 kts | 306° |
| 2026-05-07 18:09 | 62.06527 | -7.28121 | 288 ft | 13 kts | 15° |
| 2026-05-07 18:09 | 62.06605 | -7.28091 | 291 ft | 10 kts | 2° |
| 2026-05-07 18:09 | 62.06650 | -7.28014 | 293 ft | 8 kts | 69° |
| 2026-05-07 18:10 | 62.06686 | -7.27950 | 289 ft | 1 kts | 29° |
| 2026-05-07 18:10 | 62.06690 | -7.27946 | 294 ft | 0 kts | 29° |